Time;durP1;ratioP1;P1;durP2;ratioP2;P2;SDS_P1;SDS_P2;PMS_P1;PMS_P2;Temp;Humidity;BMP_temperature;BMP_pressure;BME280_temperature;BME280_humidity;BME280_pressure;Samples;Min_cycle;Max_cycle;Signal;HPM_P1;HPM_P2
2022/01/17 00:01:37;;;;;;;;;;;;;;;4.80;95.14;99700.74;1738404;82;20245;-80
2022/01/17 00:04:03;;;;;;;;;;;;;;;4.79;95.64;99695.18;1756961;81;20893;-82
2022/01/17 00:06:29;;;;;;;;;;;;;;;4.80;95.43;99705.97;1759720;80;21088;-81
2022/01/17 00:08:54;;;;;;;;;;;;;;;4.67;96.11;99680.85;1748917;81;20506;-81
2022/01/17 00:11:20;;;;;;;;;;;;;;;4.57;97.44;99693.07;1751749;80;20141;-83
2022/01/17 00:13:46;;;;;;;;;;;;;;;4.58;97.15;99676.40;1755949;81;20189;-82
2022/01/17 00:16:17;;;;;;;;;;;;;;;4.71;96.52;99651.83;1746643;81;20154;-81
2022/01/17 00:21:14;;;;;;;;;;;;;;;4.92;95.47;99650.48;1759791;80;20136;-80
2022/01/17 00:23:39;;;;;;;;;;;;;;;5.09;94.68;99618.93;1756285;80;20133;-79
2022/01/17 00:26:05;;;;;;;;;;;;;;;4.92;95.59;99630.37;1744725;81;20113;-79
2022/01/17 00:28:31;;;;;;;;;;;;;;;4.91;95.75;99633.97;1748240;81;20437;-80
2022/01/17 00:30:57;;;;;;;;;;;;;;;5.01;94.74;99629.57;1753031;81;21047;-78
2022/01/17 00:33:22;;;;;;;;;;;;;;;5.13;94.57;99611.17;1752294;80;20142;-79
2022/01/17 00:35:48;;;;;;;;;;;;;;;4.91;95.26;99620.88;1748834;81;20194;-82
2022/01/17 00:38:13;;;;;;;;;;;;;;;4.67;96.65;99594.55;1755648;80;20537;-79
2022/01/17 00:40:41;;;;;;;;;;;;;;;5.00;95.25;99608.77;1751888;80;20258;-79
2022/01/17 00:43:08;;;;;;;;;;;;;;;5.16;94.52;99616.13;1755086;80;21166;-80
2022/01/17 00:45:37;;;;;;;;;;;;;;;5.03;94.62;99598.88;1751527;80;20689;-78
2022/01/17 00:48:01;;;;;;;;;;;;;;;5.10;94.95;99581.34;1752228;81;20130;-78
2022/01/17 00:50:28;;;;;;;;;;;;;;;5.03;95.19;99587.11;1755620;80;20161;-78
2022/01/17 00:52:54;;;;;;;;;;;;;;;5.11;94.76;99576.42;1761381;80;21018;-78
2022/01/17 00:55:20;;;;;;;;;;;;;;;5.02;95.72;99567.13;1751865;80;21187;-81
2022/01/17 00:57:45;;;;;;;;;;;;;;;5.23;94.56;99567.98;1740870;81;20193;-81
2022/01/17 01:00:12;;;;;;;;;;;;;;;5.08;95.45;99557.07;1765061;80;20197;-79
2022/01/17 01:02:38;;;;;;;;;;;;;;;5.09;95.53;99556.94;1764278;79;20224;-81
2022/01/17 01:05:04;;;;;;;;;;;;;;;4.55;97.74;99562.91;1759648;79;20243;-79
2022/01/17 01:07:29;;;;;;;;;;;;;;;4.70;98.29;99563.88;1754981;80;21072;-78
2022/01/17 01:10:10;;;;;;;;;;;;;;;4.93;96.71;99571.86;1762344;80;20320;-81
2022/01/17 01:12:32;;;;;;;;;;;;;;;5.12;96.41;99564.52;1762898;80;20090;-78
2022/01/17 01:14:58;;;;;;;;;;;;;;;4.81;98.20;99569.00;1765532;80;20468;-78
2022/01/17 01:17:33;;;;;;;;;;;;;;;4.91;97.62;99571.17;1769757;80;20610;-79
2022/01/17 01:20:07;;;;;;;;;;;;;;;4.91;98.47;99580.79;1760124;80;20231;-80
2022/01/17 01:27:55;;;;;;;;;;;;;;;3.98;100.00;99559.06;1761383;80;20153;-81
2022/01/17 01:30:23;;;;;;;;;;;;;;;4.43;100.00;99518.24;1762128;80;20137;-78
2022/01/17 01:32:53;;;;;;;;;;;;;;;3.79;100.00;99538.39;1764629;80;20961;-79
2022/01/17 01:35:19;;;;;;;;;;;;;;;4.94;98.99;99512.03;1763919;80;20197;-79
2022/01/17 01:37:45;;;;;;;;;;;;;;;4.68;100.00;99515.14;1758528;80;20151;-79
2022/01/17 01:40:11;;;;;;;;;;;;;;;4.67;100.00;99546.16;1767285;80;20093;-79
2022/01/17 01:42:36;;;;;;;;;;;;;;;5.00;99.97;99489.71;1764811;80;20215;-80
2022/01/17 01:45:05;;;;;;;;;;;;;;;5.00;100.00;99498.41;1760637;80;21992;-80
2022/01/17 01:47:30;;;;;;;;;;;;;;;5.11;98.13;99524.09;1765312;80;20517;-79
2022/01/17 01:49:55;;;;;;;;;;;;;;;5.38;97.05;99483.66;1764675;80;20457;-80
2022/01/17 01:52:21;;;;;;;;;;;;;;;4.66;100.00;99462.16;1763451;80;20944;-79
2022/01/17 01:54:47;;;;;;;;;;;;;;;5.05;100.00;99482.30;1764617;79;20147;-80
2022/01/17 01:57:12;;;;;;;;;;;;;;;5.26;98.77;99492.61;1767759;80;21084;-79
2022/01/17 01:59:38;;;;;;;;;;;;;;;5.44;98.39;99472.27;1763841;80;20141;-78
2022/01/17 02:02:04;;;;;;;;;;;;;;;4.86;100.00;99507.94;1761728;80;20249;-78
2022/01/17 02:04:30;;;;;;;;;;;;;;;5.34;98.29;99517.61;1760124;80;20222;-78
2022/01/17 02:06:56;;;;;;;;;;;;;;;4.73;100.00;99466.84;1764834;80;20739;-81
2022/01/17 02:09:24;;;;;;;;;;;;;;;4.87;100.00;99487.37;1757902;80;21088;-79
2022/01/17 02:11:49;;;;;;;;;;;;;;;4.84;100.00;99539.95;1766769;80;20150;-77
2022/01/17 02:14:15;;;;;;;;;;;;;;;4.95;100.00;99466.57;1771630;80;20108;-77
2022/01/17 02:16:43;;;;;;;;;;;;;;;5.42;97.91;99465.05;1762697;80;20161;-77
2022/01/17 02:19:08;;;;;;;;;;;;;;;5.52;96.85;99412.19;1761186;80;20397;-80
2022/01/17 02:21:46;;;;;;;;;;;;;;;5.07;98.79;99448.14;1759479;80;21141;-78
2022/01/17 02:24:18;;;;;;;;;;;;;;;5.04;99.88;99419.95;1765816;79;20514;-78
2022/01/17 02:26:44;;;;;;;;;;;;;;;4.94;100.00;99430.93;1762783;80;20215;-78
2022/01/17 02:29:10;;;;;;;;;;;;;;;4.88;100.00;99405.77;1767161;79;20188;-78
2022/01/17 02:31:35;;;;;;;;;;;;;;;5.02;99.95;99415.84;1755335;80;20120;-80
2022/01/17 02:34:03;;;;;;;;;;;;;;;5.42;99.45;99390.42;1760872;80;21087;-79
2022/01/17 02:36:28;;;;;;;;;;;;;;;5.43;98.29;99389.47;1757017;80;20178;-81
2022/01/17 02:38:54;;;;;;;;;;;;;;;5.17;99.47;99400.06;1756924;80;20193;-79
2022/01/17 02:41:19;;;;;;;;;;;;;;;5.33;98.76;99430.89;1757472;80;20157;-79
2022/01/17 02:43:46;;;;;;;;;;;;;;;5.49;97.49;99378.43;1765686;80;20458;-81
2022/01/17 02:48:42;;;;;;;;;;;;;;;5.55;97.04;99358.22;1766506;79;20928;-79
2022/01/17 02:51:08;;;;;;;;;;;;;;;5.40;97.43;99338.20;1760542;79;20189;-79
2022/01/17 02:53:33;;;;;;;;;;;;;;;5.54;96.67;99368.34;1763030;80;20128;-79
2022/01/17 02:56:02;;;;;;;;;;;;;;;5.71;95.57;99336.14;1758125;81;20160;-79
2022/01/17 02:58:28;;;;;;;;;;;;;;;5.68;95.39;99321.21;1758766;81;21257;-80
2022/01/17 03:00:56;;;;;;;;;;;;;;;5.78;95.09;99326.40;1720735;81;20219;-80
2022/01/17 03:03:24;;;;;;;;;;;;;;;5.70;94.85;99331.89;1729973;81;20204;-81
2022/01/17 03:05:50;;;;;;;;;;;;;;;5.58;94.29;99319.46;1731148;82;20173;-80
2022/01/17 03:08:16;;;;;;;;;;;;;;;4.98;99.15;99288.38;1760316;81;20195;-80
2022/01/17 03:10:43;;;;;;;;;;;;;;;5.85;95.07;99311.75;1715394;82;21089;-81
2022/01/17 03:13:15;;;;;;;;;;;;;;;5.39;94.51;99299.42;1728282;81;20307;-79
2022/01/17 03:15:41;;;;;;;;;;;;;;;5.86;93.13;99309.48;1752897;80;20291;-79
2022/01/17 03:18:07;;;;;;;;;;;;;;;5.78;92.69;99308.06;1751249;81;20242;-80
2022/01/17 03:20:34;;;;;;;;;;;;;;;5.83;92.33;99322.87;1755551;81;20787;-81
2022/01/17 03:23:00;;;;;;;;;;;;;;;6.08;91.44;99332.67;1721644;83;21176;-81
2022/01/17 03:25:26;;;;;;;;;;;;;;;6.07;90.80;99316.60;1749483;81;20584;-80
2022/01/17 03:27:51;;;;;;;;;;;;;;;6.21;90.53;99297.41;1751465;81;20279;-80
2022/01/17 03:30:17;;;;;;;;;;;;;;;5.99;91.33;99261.98;1750152;81;21159;-81
2022/01/17 03:32:43;;;;;;;;;;;;;;;5.84;91.81;99278.66;1747166;81;20193;-82
2022/01/17 03:35:08;;;;;;;;;;;;;;;4.39;98.77;99268.52;1747190;81;21206;-82
2022/01/17 03:37:34;;;;;;;;;;;;;;;5.11;98.93;99282.86;1763241;80;20166;-79
2022/01/17 03:40:00;;;;;;;;;;;;;;;5.75;92.11;99257.61;1757444;81;20151;-82
2022/01/17 03:42:25;;;;;;;;;;;;;;;5.83;91.03;99318.45;1760386;81;20439;-81
2022/01/17 03:44:51;;;;;;;;;;;;;;;5.73;91.65;99283.14;1759426;80;20178;-79
2022/01/17 03:47:16;;;;;;;;;;;;;;;5.86;90.35;99314.72;1759063;81;21092;-78
2022/01/17 03:49:42;;;;;;;;;;;;;;;5.94;90.21;99261.09;1762043;81;20205;-79
2022/01/17 03:52:07;;;;;;;;;;;;;;;5.98;90.07;99262.48;1762693;80;20167;-79
2022/01/17 03:54:34;;;;;;;;;;;;;;;5.94;89.95;99308.25;1764356;80;20611;-78
2022/01/17 03:56:59;;;;;;;;;;;;;;;5.98;89.74;99253.31;1768109;80;20173;-80
2022/01/17 03:59:25;;;;;;;;;;;;;;;6.37;88.18;99257.41;1767877;80;21214;-79
2022/01/17 04:01:51;;;;;;;;;;;;;;;6.10;89.09;99270.44;1765815;80;20174;-78
2022/01/17 04:04:16;;;;;;;;;;;;;;;6.03;88.94;99256.77;1764140;80;20271;-78
2022/01/17 04:06:42;;;;;;;;;;;;;;;6.61;85.98;99221.38;1763574;80;20145;-79
2022/01/17 04:09:07;;;;;;;;;;;;;;;6.57;85.98;99226.58;1761134;80;20189;-78
2022/01/17 04:11:33;;;;;;;;;;;;;;;6.35;86.33;99201.17;1763667;80;21089;-79
2022/01/17 04:13:59;;;;;;;;;;;;;;;6.52;86.16;99189.50;1770193;80;20152;-79
2022/01/17 04:16:24;;;;;;;;;;;;;;;6.82;84.61;99203.47;1766604;80;20141;-78
2022/01/17 04:18:50;;;;;;;;;;;;;;;6.40;87.08;99195.01;1760915;80;20217;-79
2022/01/17 04:21:15;;;;;;;;;;;;;;;6.33;87.46;99166.43;1767972;80;21046;-79
2022/01/17 04:23:41;;;;;;;;;;;;;;;6.78;86.32;99135.22;1762038;80;21090;-78
2022/01/17 04:26:07;;;;;;;;;;;;;;;6.73;86.75;99128.31;1766171;80;20171;-78
2022/01/17 04:28:32;;;;;;;;;;;;;;;6.58;86.56;99124.13;1764632;80;20141;-78
2022/01/17 04:30:59;;;;;;;;;;;;;;;6.56;87.77;99117.41;1766825;80;20151;-78
2022/01/17 04:33:25;;;;;;;;;;;;;;;6.49;88.06;99114.56;1762680;80;20564;-78
2022/01/17 04:35:50;;;;;;;;;;;;;;;6.38;87.69;99182.52;1767034;80;21167;-79
2022/01/17 04:38:17;;;;;;;;;;;;;;;6.48;88.20;99150.97;1762436;80;20145;-78
2022/01/17 04:40:51;;;;;;;;;;;;;;;5.89;91.78;99174.25;1761456;80;20138;-78
2022/01/17 04:43:43;;;;;;;;;;;;;;;6.15;90.60;99110.09;1767571;80;20203;-78
2022/01/17 04:45:45;;;;;;;;;;;;;;;6.02;90.97;99096.09;1764691;80;20156;-80
2022/01/17 04:48:11;;;;;;;;;;;;;;;6.11;90.74;99068.14;1769942;80;21094;-81
2022/01/17 04:50:37;;;;;;;;;;;;;;;5.99;90.34;99118.66;1770487;80;20100;-78
2022/01/17 04:53:03;;;;;;;;;;;;;;;6.51;89.25;99042.28;1770927;80;20455;-79
2022/01/17 04:55:28;;;;;;;;;;;;;;;6.38;89.76;99102.53;1756050;80;20189;-78
2022/01/17 04:57:59;;;;;;;;;;;;;;;6.35;89.59;99079.75;1761995;80;20731;-78
2022/01/17 05:00:22;;;;;;;;;;;;;;;6.45;89.33;99093.58;1755860;80;20130;-79
2022/01/17 05:02:48;;;;;;;;;;;;;;;6.50;88.40;99071.63;1757398;80;20272;-78
2022/01/17 05:05:14;;;;;;;;;;;;;;;6.46;87.81;99103.92;1758819;80;20256;-78
2022/01/17 05:07:39;;;;;;;;;;;;;;;6.61;87.21;99045.12;1726616;80;20197;-79
2022/01/17 05:10:08;;;;;;;;;;;;;;;5.62;90.91;99076.41;1755512;80;20260;-79
2022/01/17 05:12:34;;;;;;;;;;;;;;;6.54;85.53;99086.56;1762063;80;21254;-81
2022/01/17 05:15:00;;;;;;;;;;;;;;;6.58;85.23;99112.82;1766193;80;20892;-80
2022/01/17 05:19:57;;;;;;;;;;;;;;;6.82;83.70;99018.95;1759548;80;20509;-81
2022/01/17 05:22:22;;;;;;;;;;;;;;;6.89;82.79;99055.89;1757176;80;20201;-81
2022/01/17 05:24:48;;;;;;;;;;;;;;;6.59;83.46;99041.03;1756687;80;21171;-80
2022/01/17 05:27:14;;;;;;;;;;;;;;;6.90;82.48;99036.52;1758694;80;20110;-81
2022/01/17 05:29:39;;;;;;;;;;;;;;;6.74;82.86;99022.39;1756035;80;20178;-81
2022/01/17 05:32:05;;;;;;;;;;;;;;;6.78;82.24;99047.81;1759805;80;20628;-81
2022/01/17 05:34:33;;;;;;;;;;;;;;;6.91;81.78;99048.66;1757028;80;20191;-78
2022/01/17 05:36:58;;;;;;;;;;;;;;;6.90;82.11;98991.91;1752604;80;20144;-80
2022/01/17 05:39:24;;;;;;;;;;;;;;;6.86;81.76;98973.55;1749791;80;20866;-81
2022/01/17 05:41:49;;;;;;;;;;;;;;;6.78;82.26;98993.53;1763771;80;20172;-82
2022/01/17 05:44:15;;;;;;;;;;;;;;;6.91;81.94;98959.44;1757683;80;20146;-81
2022/01/17 05:46:40;;;;;;;;;;;;;;;6.99;82.05;98952.41;1764159;80;20116;-82
2022/01/17 05:49:06;;;;;;;;;;;;;;;6.75;82.65;98932.19;1763009;80;21079;-81
2022/01/17 05:51:31;;;;;;;;;;;;;;;6.81;82.72;99005.02;1764130;80;20423;-80
2022/01/17 05:53:57;;;;;;;;;;;;;;;6.80;83.03;98971.87;1757283;80;20601;-82
2022/01/17 05:56:23;;;;;;;;;;;;;;;6.81;82.82;98957.78;1759071;80;20500;-82
2022/01/17 05:58:48;;;;;;;;;;;;;;;6.15;85.28;98980.34;1761318;80;20458;-81
2022/01/17 06:01:15;;;;;;;;;;;;;;;6.64;84.06;98911.52;1766779;80;21870;-82
2022/01/17 06:03:41;;;;;;;;;;;;;;;6.61;83.99;98927.58;1768922;80;20479;-83
2022/01/17 06:06:06;;;;;;;;;;;;;;;6.62;83.77;98947.59;1772278;80;20216;-82
2022/01/17 06:08:33;;;;;;;;;;;;;;;6.63;83.37;98946.59;1756042;80;20141;-81
2022/01/17 06:10:59;;;;;;;;;;;;;;;6.43;84.37;98881.33;1749841;80;20380;-82
2022/01/17 06:13:24;;;;;;;;;;;;;;;6.52;83.98;98868.22;1749533;80;21055;-81
2022/01/17 06:15:50;;;;;;;;;;;;;;;6.50;83.86;98896.42;1754677;80;20357;-81
2022/01/17 06:18:16;;;;;;;;;;;;;;;6.54;83.42;98933.97;1754074;80;20160;-83
2022/01/17 06:20:41;;;;;;;;;;;;;;;6.57;83.57;98890.84;1758205;80;20801;-81
2022/01/17 06:23:07;;;;;;;;;;;;;;;6.47;83.61;98851.66;1755342;80;20130;-81
2022/01/17 06:25:32;;;;;;;;;;;;;;;6.53;83.07;98869.88;1754817;80;21169;-81
2022/01/17 06:27:58;;;;;;;;;;;;;;;6.67;83.23;98811.52;1760260;80;20745;-82
2022/01/17 06:30:24;;;;;;;;;;;;;;;6.82;83.11;98853.17;1752383;80;20231;-80
2022/01/17 06:32:49;;;;;;;;;;;;;;;6.73;83.33;98850.71;1754811;80;20153;-79
2022/01/17 06:35:15;;;;;;;;;;;;;;;6.71;83.53;98859.22;1758867;80;20187;-82
2022/01/17 06:37:41;;;;;;;;;;;;;;;6.58;84.30;98783.64;1756557;80;21149;-79
2022/01/17 06:40:07;;;;;;;;;;;;;;;6.56;84.67;98798.73;1756768;80;20338;-79
2022/01/17 06:42:34;;;;;;;;;;;;;;;6.37;85.00;98849.66;1726134;80;20106;-79
2022/01/17 06:45:04;;;;;;;;;;;;;;;6.54;84.81;98845.27;1727409;81;20203;-79
2022/01/17 06:47:27;;;;;;;;;;;;;;;6.57;85.40;98812.16;1728994;81;20132;-80
2022/01/17 06:49:52;;;;;;;;;;;;;;;6.51;85.46;98851.67;1746649;80;21117;-78
2022/01/17 06:52:18;;;;;;;;;;;;;;;6.42;86.43;98743.32;1766064;80;20227;-78
2022/01/17 06:54:44;;;;;;;;;;;;;;;6.39;87.41;98762.00;1744492;81;20147;-77
2022/01/17 06:57:09;;;;;;;;;;;;;;;6.27;87.43;98743.64;1754280;81;20120;-78
2022/01/17 06:59:35;;;;;;;;;;;;;;;6.41;86.36;98757.41;1751828;81;20163;-78
2022/01/17 07:02:00;;;;;;;;;;;;;;;6.56;86.08;98727.92;1750291;80;21127;-78
2022/01/17 07:04:26;;;;;;;;;;;;;;;6.27;86.31;98798.70;1751134;81;20160;-78
2022/01/17 07:06:52;;;;;;;;;;;;;;;6.49;85.69;98742.66;1749013;81;20185;-77
2022/01/17 07:09:19;;;;;;;;;;;;;;;6.46;85.83;98734.63;1748331;81;20179;-78
2022/01/17 07:11:45;;;;;;;;;;;;;;;6.24;86.43;98748.71;1749405;81;20187;-77
2022/01/17 07:14:11;;;;;;;;;;;;;;;6.21;86.88;98753.47;1753678;81;21093;-78
2022/01/17 07:16:37;;;;;;;;;;;;;;;6.42;86.37;98766.11;1741524;81;20161;-78
2022/01/17 07:19:03;;;;;;;;;;;;;;;6.45;86.01;98763.97;1746418;81;20253;-78
2022/01/17 07:21:29;;;;;;;;;;;;;;;6.35;86.40;98780.84;1750230;80;21046;-81
2022/01/17 07:23:54;;;;;;;;;;;;;;;6.58;85.94;98756.11;1743863;81;20172;-80
2022/01/17 07:26:20;;;;;;;;;;;;;;;6.49;86.55;98799.05;1745264;81;21077;-80
2022/01/17 07:28:46;;;;;;;;;;;;;;;6.43;87.43;98726.62;1755203;81;20120;-82
2022/01/17 07:31:11;;;;;;;;;;;;;;;6.47;87.31;98756.75;1755064;81;20144;-79
2022/01/17 07:33:38;;;;;;;;;;;;;;;6.73;86.66;98778.06;1757159;81;20140;-80
2022/01/17 07:36:06;;;;;;;;;;;;;;;6.30;88.12;98735.45;1757965;81;20165;-79
2022/01/17 07:38:31;;;;;;;;;;;;;;;6.41;88.56;98714.14;1750268;81;21264;-80
2022/01/17 07:40:57;;;;;;;;;;;;;;;6.42;88.60;98675.15;1752102;81;20122;-80
2022/01/17 07:43:23;;;;;;;;;;;;;;;6.23;89.76;98757.58;1748436;81;20156;-77
2022/01/17 07:46:03;;;;;;;;;;;;;;;6.20;89.62;98683.67;1752376;81;20136;-79
2022/01/17 07:48:44;;;;;;;;;;;;;;;6.25;89.20;98665.16;1758758;81;20521;-77
2022/01/17 07:50:49;;;;;;;;;;;;;;;6.31;88.80;98680.73;1748220;80;21206;-79
2022/01/17 07:53:16;;;;;;;;;;;;;;;6.30;89.17;98638.45;1743570;81;20269;-81
2022/01/17 07:55:42;;;;;;;;;;;;;;;6.31;89.01;98624.38;1742079;81;20111;-79
2022/01/17 07:58:07;;;;;;;;;;;;;;;6.38;89.30;98576.82;1750154;81;20166;-77
2022/01/17 08:00:33;;;;;;;;;;;;;;;6.17;91.23;98585.23;1756525;81;20514;-80
2022/01/17 08:02:59;;;;;;;;;;;;;;;6.24;91.28;98567.03;1747831;80;21061;-82
2022/01/17 08:05:25;;;;;;;;;;;;;;;6.38;90.78;98541.42;1758088;81;20160;-81
2022/01/17 08:07:50;;;;;;;;;;;;;;;6.42;90.57;98558.97;1751869;80;20531;-79
2022/01/17 08:10:16;;;;;;;;;;;;;;;6.40;90.71;98570.94;1754039;80;20127;-80
2022/01/17 08:12:52;;;;;;;;;;;;;;;6.29;90.87;98575.20;1751592;81;20215;-80
2022/01/17 08:15:15;;;;;;;;;;;;;;;6.59;89.64;98593.33;1743546;81;20221;-81
2022/01/17 08:17:40;;;;;;;;;;;;;;;6.82;88.57;98516.01;1749662;81;20242;-80
2022/01/17 08:20:06;;;;;;;;;;;;;;;6.40;90.67;98613.36;1754347;81;20483;-81
2022/01/17 08:22:35;;;;;;;;;;;;;;;6.31;91.19;98666.31;1751521;81;20152;-80
2022/01/17 08:25:01;;;;;;;;;;;;;;;6.39;91.12;98565.36;1748817;81;20228;-84
2022/01/17 08:27:28;;;;;;;;;;;;;;;6.08;91.96;98625.05;1735830;81;21903;-78
2022/01/17 08:29:54;;;;;;;;;;;;;;;6.36;92.72;98528.18;1755245;81;20163;-81
2022/01/17 08:32:20;;;;;;;;;;;;;;;6.86;91.97;98515.66;1749086;81;20408;-84
2022/01/17 08:34:46;;;;;;;;;;;;;;;7.15;88.60;98480.88;1748691;81;20238;-80
2022/01/17 08:37:12;;;;;;;;;;;;;;;6.79;86.55;98574.07;1751669;81;20166;-80
2022/01/17 08:39:37;;;;;;;;;;;;;;;6.92;86.25;98516.28;1749472;81;22249;-84
2022/01/17 08:42:10;;;;;;;;;;;;;;;6.87;85.91;98548.77;1745365;80;20146;-83
2022/01/17 08:44:30;;;;;;;;;;;;;;;6.83;86.13;98585.84;1746853;80;20202;-81
2022/01/17 08:46:56;;;;;;;;;;;;;;;6.86;85.98;98499.92;1747800;80;21183;-80
2022/01/17 08:49:23;;;;;;;;;;;;;;;7.04;85.12;98523.25;1752021;80;20132;-81
2022/01/17 08:51:49;;;;;;;;;;;;;;;7.09;84.85;98475.81;1745009;81;21846;-82
2022/01/17 08:54:15;;;;;;;;;;;;;;;7.07;85.04;98452.03;1746759;81;20138;-80
2022/01/17 08:56:40;;;;;;;;;;;;;;;6.89;86.42;98431.35;1758927;80;20512;-82
2022/01/17 08:59:06;;;;;;;;;;;;;;;5.99;91.08;98514.67;1756197;81;20444;-81
2022/01/17 09:01:32;;;;;;;;;;;;;;;5.75;93.09;98445.61;1749378;81;20128;-82
2022/01/17 09:03:57;;;;;;;;;;;;;;;5.89;93.22;98439.36;1746554;80;21059;-81
2022/01/17 09:06:24;;;;;;;;;;;;;;;5.12;96.63;98509.12;1755376;81;20272;-81
2022/01/17 09:08:49;;;;;;;;;;;;;;;4.95;99.49;98663.41;1750266;80;20200;-83
2022/01/17 09:11:15;;;;;;;;;;;;;;;5.07;100.00;98890.79;1748912;80;20224;-79
2022/01/17 09:13:42;;;;;;;;;;;;;;;7.70;88.42;98746.92;1762699;81;20157;-80
2022/01/17 09:16:08;;;;;;;;;;;;;;;10.38;72.85;98723.39;1750913;81;22068;-79
2022/01/17 09:18:34;;;;;;;;;;;;;;;9.68;70.89;98756.53;1755091;81;20165;-82
2022/01/17 09:21:00;;;;;;;;;;;;;;;9.29;70.32;98747.94;1757185;81;20173;-80
2022/01/17 09:23:25;;;;;;;;;;;;;;;7.82;76.14;98849.35;1745694;81;20517;-82
2022/01/17 09:25:51;;;;;;;;;;;;;;;8.70;70.41;98808.41;1752225;80;20128;-82
2022/01/17 09:28:17;;;;;;;;;;;;;;;8.11;71.74;98782.66;1751677;81;21779;-78
2022/01/17 09:30:42;;;;;;;;;;;;;;;8.26;71.19;98800.17;1749935;80;20180;-81
2022/01/17 09:33:08;;;;;;;;;;;;;;;7.96;72.46;98801.00;1753863;81;20180;-80
2022/01/17 09:35:34;;;;;;;;;;;;;;;8.23;70.84;98796.57;1750713;81;20440;-80
2022/01/17 09:37:59;;;;;;;;;;;;;;;7.17;93.60;98817.03;1758326;80;20175;-81
2022/01/17 09:40:25;;;;;;;;;;;;;;;7.13;73.11;98864.31;1757892;81;21188;-80
2022/01/17 09:42:51;;;;;;;;;;;;;;;7.91;72.47;98810.22;1753608;81;20737;-80
2022/01/17 09:45:18;;;;;;;;;;;;;;;8.04;69.52;98840.39;1756318;80;20447;-79
2022/01/17 09:47:44;;;;;;;;;;;;;;;8.08;69.42;98841.69;1745904;81;20638;-79
2022/01/17 09:50:13;;;;;;;;;;;;;;;8.25;69.51;98821.38;1751409;81;20285;-81
2022/01/17 09:52:41;;;;;;;;;;;;;;;7.75;70.61;98827.36;1753601;81;21141;-80
2022/01/17 09:55:12;;;;;;;;;;;;;;;7.88;68.55;98819.76;1745608;81;20508;-80
2022/01/17 09:57:40;;;;;;;;;;;;;;;8.24;68.24;98800.82;1748062;81;20285;-81
2022/01/17 10:00:07;;;;;;;;;;;;;;;8.41;66.88;98781.80;1745166;80;20198;-82
2022/01/17 10:02:33;;;;;;;;;;;;;;;8.47;66.62;98807.94;1750461;81;20223;-81
2022/01/17 10:05:02;;;;;;;;;;;;;;;7.68;68.23;98807.52;1752279;80;21315;-80
2022/01/17 10:07:47;;;;;;;;;;;;;;;7.44;68.68;98839.97;1754720;81;20120;-81
2022/01/17 10:10:13;;;;;;;;;;;;;;;7.83;69.06;98810.27;1749757;81;20197;-81
2022/01/17 10:12:39;;;;;;;;;;;;;;;8.02;68.30;98821.34;1756006;81;20628;-80
2022/01/17 10:15:07;;;;;;;;;;;;;;;8.19;67.11;98803.16;1753070;81;20116;-81
2022/01/17 10:17:42;;;;;;;;;;;;;;;7.90;68.22;98823.02;1741379;81;20126;-85
2022/01/17 10:20:09;;;;;;;;;;;;;;;7.95;67.59;98813.81;1744569;80;20185;-81
2022/01/17 10:22:45;;;;;;;;;;;;;;;7.90;67.78;98824.34;1749524;80;20466;-79
2022/01/17 10:25:28;;;;;;;;;;;;;;;7.74;68.01;98825.74;1747646;81;20561;-78
2022/01/17 10:28:08;;;;;;;;;;;;;;;7.62;68.26;98838.42;1750395;80;36077;-83
2022/01/17 10:35:32;;;;;;;;;;;;;;;7.73;67.16;98822.78;1760807;81;20272;-78
2022/01/17 10:38:08;;;;;;;;;;;;;;;7.11;67.74;98830.02;1752952;80;20189;-77
2022/01/17 10:40:39;;;;;;;;;;;;;;;7.36;67.26;98823.73;1755489;80;20207;-84
2022/01/17 10:43:05;;;;;;;;;;;;;;;7.28;67.66;98832.92;1755710;81;21067;-83
2022/01/17 10:45:37;;;;;;;;;;;;;;;7.37;68.07;98845.55;1756468;81;20895;-80
2022/01/17 10:48:03;;;;;;;;;;;;;;;7.65;66.79;98856.47;1745516;80;20472;-79
2022/01/17 10:50:38;;;;;;;;;;;;;;;6.92;68.02;98861.37;1753399;81;20205;-79
2022/01/17 10:53:08;;;;;;;;;;;;;;;6.69;69.38;98899.23;1752368;80;20658;-79
2022/01/17 10:55:36;;;;;;;;;;;;;;;6.83;69.06;98909.89;1745771;81;21244;-80
2022/01/17 10:58:07;;;;;;;;;;;;;;;6.43;70.09;98883.95;1742851;80;20128;-81
2022/01/17 11:00:35;;;;;;;;;;;;;;;6.39;69.83;98887.86;1751893;80;20153;-79
2022/01/17 11:03:03;;;;;;;;;;;;;;;6.78;68.64;98887.27;1741266;80;20206;-78
2022/01/17 11:05:28;;;;;;;;;;;;;;;6.68;68.54;98906.29;1751590;81;20491;-80
2022/01/17 11:07:58;;;;;;;;;;;;;;;6.66;68.11;98909.55;1750915;80;21065;-79
2022/01/17 11:10:26;;;;;;;;;;;;;;;6.78;68.56;98913.50;1752824;81;20166;-78
2022/01/17 11:12:54;;;;;;;;;;;;;;;6.53;69.40;98919.70;1747404;81;20558;-78
2022/01/17 11:15:20;;;;;;;;;;;;;;;6.49;69.03;98932.80;1744894;81;20215;-78
2022/01/17 11:17:51;;;;;;;;;;;;;;;6.65;68.45;98924.98;1747543;80;20200;-78
2022/01/17 11:20:13;;;;;;;;;;;;;;;6.52;69.43;98926.73;1746696;80;20118;-78
2022/01/17 11:22:40;;;;;;;;;;;;;;;6.43;69.09;98918.04;1751096;81;20162;-78
2022/01/17 11:25:08;;;;;;;;;;;;;;;6.36;69.77;98914.41;1755131;81;20198;-78
2022/01/17 11:27:34;;;;;;;;;;;;;;;6.52;69.28;98901.00;1756303;81;20560;-78
2022/01/17 11:30:00;;;;;;;;;;;;;;;6.91;68.14;98913.02;1745406;81;20474;-78
2022/01/17 11:32:26;;;;;;;;;;;;;;;6.31;69.71;98938.98;1748754;80;21085;-80
2022/01/17 11:34:52;;;;;;;;;;;;;;;6.65;68.86;98938.91;1752221;81;20132;-81
2022/01/17 11:37:18;;;;;;;;;;;;;;;6.88;68.07;98950.58;1747564;81;20145;-77
2022/01/17 11:39:49;;;;;;;;;;;;;;;7.42;66.37;98943.04;1754914;81;20247;-78
2022/01/17 11:42:30;;;;;;;;;;;;;;;6.43;67.11;98960.47;1746188;81;20604;-79
2022/01/17 11:44:55;;;;;;;;;;;;;;;6.75;67.18;98997.78;1750621;81;21160;-77
2022/01/17 11:47:54;;;;;;;;;;;;;;;6.60;66.77;98973.98;1751742;81;20148;-80
2022/01/17 11:50:33;;;;;;;;;;;;;;;6.74;66.32;98976.48;1751541;80;20141;-78
2022/01/17 11:53:14;;;;;;;;;;;;;;;7.12;65.68;98979.98;1751715;81;20177;-77
2022/01/17 11:55:42;;;;;;;;;;;;;;;7.22;65.16;98971.44;1750555;80;20233;-79
2022/01/17 11:58:26;;;;;;;;;;;;;;;6.89;65.50;99007.34;1748374;80;20479;-79
2022/01/17 12:01:01;;;;;;;;;;;;;;;6.98;64.81;99033.94;1746840;81;20171;-80
2022/01/17 12:03:31;;;;;;;;;;;;;;;7.40;63.87;99000.18;1749054;80;20688;-77
2022/01/17 12:06:02;;;;;;;;;;;;;;;7.03;63.92;99036.89;1747607;81;20222;-80
2022/01/17 12:08:28;;;;;;;;;;;;;;;7.26;63.25;99046.79;1758875;81;20244;-79
2022/01/17 12:10:59;;;;;;;;;;;;;;;7.66;62.01;99053.88;1747715;81;21113;-79
2022/01/17 12:13:40;;;;;;;;;;;;;;;7.09;62.86;99070.38;1758208;81;20157;-79
2022/01/17 12:16:11;;;;;;;;;;;;;;;7.50;61.97;99081.44;1756501;81;20204;-81
2022/01/17 12:18:48;;;;;;;;;;;;;;;7.31;61.68;99084.69;1750523;80;20501;-77
2022/01/17 12:21:31;;;;;;;;;;;;;;;7.01;61.63;99111.05;1749965;80;20167;-79
2022/01/17 12:24:19;;;;;;;;;;;;;;;7.48;60.81;99109.69;1753191;80;21190;-78
2022/01/17 12:26:57;;;;;;;;;;;;;;;7.24;60.09;99107.81;1754925;80;20159;-81
2022/01/17 12:29:52;;;;;;;;;;;;;;;7.46;60.47;99122.98;1749842;81;20160;-80
2022/01/17 12:32:29;;;;;;;;;;;;;;;7.23;59.95;99107.50;1750097;81;20482;-78
2022/01/17 12:34:58;;;;;;;;;;;;;;;7.40;59.04;99126.25;1749878;81;20149;-80
2022/01/17 12:37:46;;;;;;;;;;;;;;;7.71;57.47;99108.56;1735701;81;21134;-77
2022/01/17 12:40:30;;;;;;;;;;;;;;;7.51;58.41;99090.47;1750183;80;20181;-80
2022/01/17 12:43:04;;;;;;;;;;;;;;;7.01;57.91;99094.80;1750019;80;20493;-80
2022/01/17 12:45:36;;;;;;;;;;;;;;;7.26;56.97;99129.50;1747883;81;20193;-78
2022/01/17 12:48:08;;;;;;;;;;;;;;;7.51;56.56;99102.29;1749173;81;20237;-77
2022/01/17 12:50:35;;;;;;;;;;;;;;;7.61;56.68;99114.45;1754874;80;21166;-79
2022/01/17 12:53:01;;;;;;;;;;;;;;;7.61;56.05;99157.80;1748535;81;20105;-79
2022/01/17 12:55:32;;;;;;;;;;;;;;;7.65;55.41;99185.41;1746580;81;20478;-79
2022/01/17 12:57:58;;;;;;;;;;;;;;;7.76;55.57;99149.62;1754267;80;20202;-78
2022/01/17 13:00:26;;;;;;;;;;;;;;;7.94;54.31;99170.98;1749004;80;20144;-79
2022/01/17 13:02:52;;;;;;;;;;;;;;;7.40;54.86;99168.77;1757147;80;20820;-82
2022/01/17 13:05:23;;;;;;;;;;;;;;;7.77;54.18;99149.95;1752022;81;20112;-83
2022/01/17 13:07:48;;;;;;;;;;;;;;;7.82;54.29;99166.05;1752833;80;20187;-81
2022/01/17 13:10:14;;;;;;;;;;;;;;;7.52;54.08;99193.77;1753579;81;20618;-80
2022/01/17 13:12:41;;;;;;;;;;;;;;;7.84;54.43;99173.27;1755356;81;20248;-80
2022/01/17 13:15:08;;;;;;;;;;;;;;;7.83;54.25;99221.59;1749189;81;21173;-80